Time;durP1;ratioP1;P1;durP2;ratioP2;P2;SDS_P1;SDS_P2;PMS_P1;PMS_P2;Temp;Humidity;BMP_temperature;BMP_pressure;BME280_temperature;BME280_humidity;BME280_pressure;Samples;Min_cycle;Max_cycle;Signal;HPM_P1;HPM_P2
2023/10/12 00:02:04;;;;;;;7.85;3.55;;;14.40;99.90;;;14.14;100.00;97259.38;5004303;28;20041;-38
2023/10/12 00:04:36;;;;;;;6.40;3.28;;;14.30;99.90;;;14.13;100.00;97270.91;5002487;28;20557;-38
2023/10/12 00:07:15;;;;;;;5.22;3.40;;;14.30;99.90;;;14.12;100.00;97264.75;5003065;28;20045;-38
2023/10/12 00:09:48;;;;;;;8.00;3.08;;;14.30;99.90;;;14.08;100.00;97259.69;5003095;28;20478;-39
2023/10/12 00:12:24;;;;;;;9.68;3.47;;;14.30;99.90;;;14.03;100.00;97256.41;5007027;28;20044;-40
2023/10/12 00:14:54;;;;;;;8.68;3.28;;;14.20;99.90;;;14.01;100.00;97256.50;5005075;28;20025;-40
2023/10/12 00:17:19;;;;;;;6.93;3.47;;;14.20;99.90;;;13.95;100.00;97246.22;4991756;28;20038;-39
2023/10/12 00:19:46;;;;;;;9.50;3.80;;;14.10;99.90;;;13.87;100.00;97248.41;5003335;28;20034;-41
2023/10/12 00:22:14;;;;;;;7.70;3.33;;;14.10;99.90;;;13.79;100.00;97232.91;5004640;28;20037;-40
2023/10/12 00:24:40;;;;;;;6.07;3.10;;;14.10;99.90;;;13.87;100.00;97254.59;5002543;28;20025;-40
2023/10/12 00:27:09;;;;;;;5.45;3.40;;;14.10;99.90;;;13.84;100.00;97245.94;4999978;28;20528;-40
2023/10/12 00:29:39;;;;;;;6.05;3.35;;;14.00;99.90;;;13.77;100.00;97242.75;5002903;28;20025;-40
2023/10/12 00:32:08;;;;;;;9.73;3.60;;;14.00;99.90;;;13.62;100.00;97220.56;5016510;28;20508;-39
2023/10/12 00:34:39;;;;;;;6.75;3.40;;;14.00;99.90;;;13.76;100.00;97241.03;5004514;28;20049;-40
2023/10/12 00:37:06;;;;;;;8.88;3.30;;;14.00;99.90;;;13.70;100.00;97238.69;5006096;28;20132;-40
2023/10/12 00:39:58;;;;;;;7.93;3.78;;;13.90;99.90;;;13.71;100.00;97241.28;5005532;28;20076;-41
2023/10/12 00:42:34;;;;;;;9.68;3.65;;;14.00;99.90;;;13.68;100.00;97244.06;5000540;28;20417;-39
2023/10/12 00:45:11;;;;;;;5.68;3.58;;;13.90;99.90;;;13.66;100.00;97245.97;4999247;28;20577;-40
2023/10/12 00:47:44;;;;;;;10.02;3.33;;;13.90;99.90;;;13.62;100.00;97231.16;4999044;28;20029;-42
2023/10/12 00:50:11;;;;;;;8.70;3.45;;;13.80;99.90;;;13.58;100.00;97228.75;5001412;28;20034;-39
2023/10/12 00:52:59;;;;;;;8.75;3.88;;;13.80;99.90;;;13.58;100.00;97231.38;4981444;28;20618;-38
2023/10/12 00:55:37;;;;;;;8.35;3.50;;;13.80;99.90;;;13.59;100.00;97233.13;5004219;28;20034;-38
2023/10/12 00:58:08;;;;;;;8.70;3.78;;;13.80;99.90;;;13.58;100.00;97226.09;5002347;28;20418;-40
2023/10/12 01:01:00;;;;;;;5.65;3.47;;;13.80;99.90;;;13.56;100.00;97221.72;5006014;28;20541;-39
2023/10/12 01:06:12;;;;;;;6.47;3.50;;;13.80;99.90;;;13.53;100.00;97216.59;4997799;28;20281;-39
2023/10/12 01:08:43;;;;;;;11.20;4.25;;;13.70;99.90;;;13.51;100.00;97218.47;5000573;28;20042;-39
2023/10/12 01:11:18;;;;;;;8.85;3.30;;;13.70;99.90;;;13.49;100.00;97220.31;4997597;28;20030;-38
2023/10/12 01:13:49;;;;;;;11.70;4.25;;;13.80;99.90;;;13.51;100.00;97214.94;4998800;28;20049;-38
2023/10/12 01:16:42;;;;;;;10.32;3.80;;;13.70;99.90;;;13.44;100.00;97200.31;5006428;28;20041;-39
2023/10/12 01:19:05;;;;;;;8.55;3.50;;;13.70;99.90;;;13.52;100.00;97217.50;5002159;28;20069;-39
2023/10/12 01:21:35;;;;;;;6.03;3.50;;;13.70;99.90;;;13.41;100.00;97201.31;5002777;28;20095;-40
2023/10/12 01:24:11;;;;;;;6.65;3.25;;;13.70;99.90;;;13.31;100.00;97189.47;5003371;28;20579;-38
2023/10/12 01:26:48;;;;;;;8.95;3.40;;;13.70;99.90;;;13.61;100.00;97225.94;5006778;28;20060;-40
2023/10/12 01:29:21;;;;;;;8.75;4.13;;;13.80;99.90;;;13.65;100.00;97212.44;5005577;28;20320;-39
2023/10/12 01:32:23;;;;;;;7.63;4.03;;;13.90;99.90;;;13.83;100.00;97215.06;4997615;28;20038;-39
2023/10/12 01:34:44;;;;;;;7.90;4.20;;;14.00;99.90;;;13.99;100.00;97217.75;4993737;28;20044;-40
2023/10/12 01:37:25;;;;;;;8.80;4.00;;;14.20;99.90;;;14.18;100.00;97215.81;5004145;28;20026;-40
2023/10/12 01:39:57;;;;;;;11.60;3.80;;;14.30;99.90;;;14.38;100.00;97213.88;4998329;28;20116;-38
2023/10/12 01:42:34;;;;;;;9.30;4.00;;;14.50;99.90;;;14.61;100.00;97215.28;5001237;28;20054;-39
2023/10/12 01:45:02;;;;;;;10.02;3.65;;;14.70;99.90;;;14.65;100.00;97206.22;5000647;28;20041;-39
2023/10/12 01:47:28;;;;;;;8.18;4.30;;;14.90;99.90;;;14.77;100.00;97201.97;5003617;28;20053;-39
2023/10/12 01:49:54;;;;;;;12.25;3.97;;;14.90;99.90;;;14.87;100.00;97201.38;4997190;28;20486;-39
2023/10/12 01:52:19;;;;;;;8.48;3.75;;;15.00;99.90;;;15.00;100.00;97206.84;5006634;28;20088;-39
2023/10/12 01:54:49;;;;;;;7.82;3.65;;;15.20;99.90;;;15.03;100.00;97206.66;5002240;28;20081;-38
2023/10/12 01:57:29;;;;;;;5.93;3.33;;;15.10;99.90;;;15.07;100.00;97213.53;5005646;28;20084;-39
2023/10/12 01:59:55;;;;;;;6.60;3.53;;;15.20;99.90;;;14.99;100.00;97178.56;4999127;28;20165;-40
2023/10/12 02:02:21;;;;;;;9.95;3.92;;;15.30;99.90;;;15.15;100.00;97201.59;5007217;28;20556;-39
2023/10/12 02:04:48;;;;;;;7.82;3.50;;;15.30;99.90;;;15.29;100.00;97196.31;4985700;28;20042;-40
2023/10/12 02:07:14;;;;;;;8.45;4.03;;;15.40;99.90;;;15.38;100.00;97209.06;5001415;28;20037;-38
2023/10/12 02:09:41;;;;;;;12.38;3.70;;;15.50;99.90;;;15.34;100.00;97196.88;5007662;28;20387;-40
2023/10/12 02:12:12;;;;;;;8.45;3.60;;;15.50;99.90;;;15.46;100.00;97203.28;5004350;28;20036;-40
2023/10/12 02:14:40;;;;;;;11.80;4.00;;;15.60;99.90;;;15.54;100.00;97197.50;5012328;28;20030;-39
2023/10/12 02:17:08;;;;;;;6.10;3.92;;;15.60;99.90;;;15.65;100.00;97209.19;5008989;28;20061;-40
2023/10/12 02:19:41;;;;;;;7.68;3.80;;;15.70;99.90;;;15.71;100.00;97204.47;5003788;28;20371;-39
2023/10/12 02:22:29;;;;;;;8.55;3.53;;;15.80;99.90;;;15.70;100.00;97211.56;5005641;28;20026;-40
2023/10/12 02:27:41;;;;;;;7.38;3.63;;;15.80;99.90;;;15.65;100.00;97216.31;5005184;28;20072;-39
2023/10/12 02:30:13;;;;;;;6.55;3.80;;;15.80;99.90;;;15.70;100.00;97216.88;5007795;28;20030;-39
2023/10/12 02:32:50;;;;;;;8.18;3.65;;;15.80;99.90;;;15.72;100.00;97222.09;5001730;28;20089;-39
2023/10/12 02:35:19;;;;;;;6.45;3.65;;;15.80;99.90;;;15.74;100.00;97214.88;5000947;28;20048;-39
2023/10/12 02:37:46;;;;;;;7.63;3.50;;;15.80;99.90;;;15.71;100.00;97213.28;5004636;28;20028;-39
2023/10/12 02:40:12;;;;;;;10.52;4.25;;;15.80;99.90;;;15.72;100.00;97208.81;5005606;28;20025;-40
2023/10/12 02:42:41;;;;;;;7.32;3.65;;;15.80;99.90;;;15.76;100.00;97207.75;5005248;28;20049;-39
2023/10/12 02:45:17;;;;;;;8.10;3.88;;;15.90;99.90;;;15.79;100.00;97204.88;5005420;28;20277;-40
2023/10/12 02:47:45;;;;;;;9.57;3.88;;;15.90;99.90;;;15.80;100.00;97202.13;5005654;28;20560;-41
2023/10/12 02:52:43;;;;;;;11.65;3.85;;;15.90;99.90;;;15.79;100.00;97199.56;5004142;28;20117;-38
2023/10/12 02:57:53;;;;;;;6.78;3.60;;;16.00;99.90;;;15.86;100.00;97202.69;5010385;28;20030;-38
2023/10/12 03:00:36;;;;;;;6.55;3.47;;;16.00;99.90;;;15.84;100.00;97203.66;5011042;28;20037;-40
2023/10/12 03:03:19;;;;;;;;;;;16.00;99.90;;;15.97;100.00;97211.75;5006113;28;20353;-39
2023/10/12 03:05:47;;;;;;;7.75;3.25;;;16.10;99.90;;;16.08;100.00;97203.09;5000218;28;20373;-39
2023/10/12 03:08:17;;;;;;;11.18;3.78;;;16.20;99.90;;;16.10;100.00;97213.63;5002125;28;20034;-39
2023/10/12 03:13:35;;;;;;;10.73;3.50;;;16.20;99.90;;;16.05;100.00;97213.06;5005078;28;20034;-39
2023/10/12 03:16:13;;;;;;;12.02;3.78;;;16.20;99.90;;;16.06;100.00;97206.78;5004566;28;20502;-39
2023/10/12 03:18:42;;;;;;;7.28;3.38;;;16.20;99.90;;;16.11;100.00;97210.00;5001253;28;20088;-39
2023/10/12 03:21:14;;;;;;;9.38;3.50;;;16.20;99.90;;;16.15;100.00;97206.19;4984425;28;20045;-38
2023/10/12 03:23:46;;;;;;;6.13;3.50;;;16.30;99.90;;;16.13;100.00;97201.00;5018682;28;20295;-38
2023/10/12 03:26:24;;;;;;;8.83;3.50;;;16.30;99.90;;;16.21;100.00;97209.34;5007067;28;20380;-39
2023/10/12 03:29:07;;;;;;;8.75;3.47;;;16.30;99.90;;;16.21;100.00;97209.34;5006541;28;20312;-39
2023/10/12 03:36:59;;;;;;;9.00;3.33;;;16.30;99.90;;;16.23;100.00;97206.59;5003310;28;20409;-41
2023/10/12 03:39:27;;;;;;;8.45;4.03;;;16.30;99.90;;;16.23;100.00;97212.75;5006397;28;20021;-40
2023/10/12 03:41:55;;;;;;;6.97;3.30;;;16.40;99.90;;;16.17;100.00;97194.53;5001252;28;20033;-39
2023/10/12 03:47:15;;;;;;;7.32;3.53;;;16.30;99.90;;;16.22;100.00;97203.09;5008311;28;20045;-39
2023/10/12 03:49:57;;;;;;;6.00;3.10;;;16.30;99.90;;;16.24;100.00;97208.31;5004603;28;20147;-39
2023/10/12 03:52:39;;;;;;;10.52;4.05;;;16.40;99.90;;;16.22;100.00;97202.22;5011341;28;20030;-39
2023/10/12 04:02:44;;;;;;;10.20;3.65;;;16.30;99.90;;;16.28;100.00;97201.84;5006358;28;20026;-39
2023/10/12 04:05:20;;;;;;;8.75;3.60;;;16.30;99.90;;;16.19;100.00;97191.78;4993688;28;20438;-40
2023/10/12 04:08:17;;;;;;;7.78;3.45;;;16.30;99.90;;;16.21;100.00;97200.50;5002541;28;20037;-40
2023/10/12 04:16:09;;;;;;;7.78;3.30;;;16.20;99.90;;;15.95;100.00;97205.66;4993600;28;20073;-38
2023/10/12 04:21:18;;;;;;;12.63;3.60;;;16.10;99.90;;;15.71;100.00;97183.19;5003174;28;20593;-39
2023/10/12 04:23:49;;;;;;;9.90;4.13;;;16.10;99.90;;;15.82;100.00;97200.22;5000976;28;20167;-41
2023/10/12 04:29:21;;;;;;;8.95;3.97;;;16.00;99.90;;;15.90;100.00;97222.81;5005468;28;20072;-39
2023/10/12 04:34:14;;;;;;;11.68;3.90;;;15.90;99.90;;;15.81;100.00;97224.25;4999692;28;20659;-40
2023/10/12 04:39:25;;;;;;;5.45;2.97;;;15.90;99.90;;;15.76;100.00;97229.00;5005284;28;20029;-40
2023/10/12 04:42:05;;;;;;;7.35;3.67;;;15.90;99.90;;;15.75;100.00;97225.47;5003980;28;20036;-40
2023/10/12 04:46:59;;;;;;;8.95;3.78;;;15.90;99.90;;;15.72;100.00;97220.31;4991489;28;20497;-38
2023/10/12 04:49:54;;;;;;;6.90;3.50;;;15.90;99.90;;;15.57;100.00;97200.81;4999181;28;20034;-38
2023/10/12 04:52:17;;;;;;;8.32;3.50;;;15.80;99.90;;;15.77;100.00;97223.59;4992051;28;20513;-37
2023/10/12 04:54:59;;;;;;;6.20;3.70;;;15.80;99.90;;;15.76;100.00;97226.34;5002213;28;20034;-37
2023/10/12 04:57:27;;;;;;;7.18;3.88;;;15.90;99.90;;;15.75;100.00;97221.97;5007455;28;20397;-38
2023/10/12 05:07:53;;;;;;;8.45;3.80;;;15.90;99.90;;;15.69;100.00;97217.84;4995174;28;20530;-38
2023/10/12 05:10:46;;;;;;;7.90;4.03;;;15.80;99.90;;;15.73;100.00;97231.81;4987403;28;20045;-38
2023/10/12 05:13:19;;;;;;;9.93;3.38;;;15.90;99.90;;;15.64;100.00;97218.09;4973627;28;20042;-38
2023/10/12 05:15:54;;;;;;;6.10;3.60;;;15.90;99.90;;;15.71;100.00;97239.03;4992671;28;20046;-38
2023/10/12 05:18:24;;;;;;;6.88;3.25;;;15.80;99.90;;;15.68;100.00;97229.41;4997019;28;20038;-38
2023/10/12 05:20:51;;;;;;;8.88;3.90;;;15.80;99.90;;;15.68;100.00;97229.41;4985647;28;20030;-39
2023/10/12 05:23:17;;;;;;;7.15;3.17;;;15.80;99.90;;;15.72;100.00;97230.09;4989701;28;20040;-38
2023/10/12 05:28:21;;;;;;;7.13;3.60;;;15.90;99.90;;;15.63;100.00;97221.72;5004763;28;20042;-40
2023/10/12 05:30:55;;;;;;;6.50;3.50;;;15.90;99.90;;;15.71;100.00;97239.88;5000379;28;20088;-41
2023/10/12 05:36:10;;;;;;;6.22;3.55;;;15.90;99.90;;;15.74;100.00;97245.03;5001419;28;20058;-40
2023/10/12 05:38:37;;;;;;;8.68;3.70;;;15.90;99.90;;;15.81;100.00;97250.84;5003407;28;20029;-40
2023/10/12 05:41:09;;;;;;;15.93;3.75;;;15.90;99.90;;;15.79;100.00;97242.09;5016456;28;20021;-40
2023/10/12 05:43:40;;;;;;;6.95;3.22;;;15.90;99.90;;;15.79;100.00;97242.09;5004459;28;20026;-40
2023/10/12 05:46:13;;;;;;;5.68;3.25;;;15.90;99.90;;;15.79;100.00;97242.09;5005059;28;20529;-40
2023/10/12 05:48:46;;;;;;;8.95;3.78;;;15.90;99.90;;;15.77;100.00;97250.19;5005093;28;20050;-39
2023/10/12 05:51:19;;;;;;;6.55;3.35;;;15.90;99.90;;;15.80;100.00;97243.81;4999529;28;20469;-39
2023/10/12 05:53:45;;;;;;;8.57;3.50;;;16.00;99.90;;;15.83;100.00;97249.81;5002910;28;20026;-38
2023/10/12 05:56:12;;;;;;;11.70;4.18;;;16.00;99.90;;;15.86;100.00;97254.06;5004412;28;20313;-40
2023/10/12 05:58:40;;;;;;;7.63;3.67;;;16.00;99.90;;;15.92;100.00;97243.06;4994333;28;20040;-38
2023/10/12 06:01:09;;;;;;;12.75;4.20;;;16.10;99.90;;;16.09;100.00;97251.81;4998407;28;20513;-40
2023/10/12 06:03:43;;;;;;;6.50;3.70;;;16.20;99.90;;;16.15;100.00;97262.06;4996943;28;20136;-41
2023/10/12 06:06:09;;;;;;;9.70;3.78;;;16.30;99.90;;;16.16;100.00;97243.34;4999614;28;20068;-42
2023/10/12 06:08:37;;;;;;;6.95;3.42;;;16.40;99.90;;;16.34;100.00;97249.34;4997238;28;20087;-39
2023/10/12 06:11:04;;;;;;;6.15;3.38;;;16.50;99.90;;;16.40;100.00;97240.97;4995691;28;20038;-38
2023/10/12 06:13:40;;;;;;;7.32;3.58;;;16.50;99.90;;;16.51;100.00;97245.63;4995703;28;20080;-41
2023/10/12 06:16:14;;;;;;;9.40;3.58;;;16.60;99.90;;;16.63;100.00;97249.31;4999722;28;20045;-39
2023/10/12 06:18:44;;;;;;;5.78;3.05;;;16.70;99.90;;;16.67;100.00;97245.50;5007547;28;20087;-40
2023/10/12 06:21:17;;;;;;;11.80;4.25;;;16.80;99.90;;;16.81;100.00;97247.25;5006350;28;20579;-38
2023/10/12 06:23:50;;;;;;;8.02;4.20;;;17.00;99.90;;;16.96;100.00;97256.97;5001868;28;20045;-40
2023/10/12 06:26:29;;;;;;;6.20;3.72;;;17.10;99.90;;;17.11;100.00;97255.09;5006881;28;20025;-39
2023/10/12 06:28:57;;;;;;;7.75;3.78;;;17.20;99.90;;;17.10;99.88;97233.88;5005549;28;20038;-38
2023/10/12 06:31:25;;;;;;;4.82;3.08;;;17.40;99.90;;;17.33;99.99;97259.00;5000448;28;20057;-40
2023/10/12 06:33:55;;;;;;;8.57;3.30;;;17.50;99.90;;;17.46;98.72;97254.59;5005327;28;21003;-39
2023/10/12 06:36:37;;;;;;;7.97;3.72;;;17.60;99.90;;;17.59;95.60;97259.94;5002762;28;20069;-38
2023/10/12 06:44:22;;;;;;;6.03;3.60;;;18.00;99.90;;;18.03;93.67;97266.72;5003148;28;20037;-41
2023/10/12 06:46:49;;;;;;;6.10;2.70;;;18.20;99.90;;;18.12;93.37;97275.91;5008494;28;20034;-40
2023/10/12 06:49:18;;;;;;;7.68;3.22;;;18.20;99.90;;;18.20;93.40;97281.59;5006441;28;20518;-38
2023/10/12 06:52:00;;;;;;;7.53;3.17;;;18.30;99.90;;;18.26;95.07;97285.63;5007422;28;20037;-38
2023/10/12 06:54:39;;;;;;;8.82;3.83;;;18.40;99.90;;;18.32;93.67;97287.88;5006605;28;20032;-40
2023/10/12 07:02:30;;;;;;;8.40;3.53;;;18.50;99.90;;;18.44;93.14;97292.34;5018755;28;20041;-39
2023/10/12 07:05:04;;;;;;;6.53;3.33;;;18.60;99.90;;;18.53;92.97;97301.53;5004992;28;20112;-40
2023/10/12 07:07:41;;;;;;;5.43;3.30;;;18.60;99.90;;;18.58;94.30;97304.72;5001187;28;20038;-39
2023/10/12 07:12:47;;;;;;;8.10;3.45;;;18.80;99.90;;;18.80;90.12;97309.38;5012345;28;20034;-39
2023/10/12 07:15:19;;;;;;;5.70;3.40;;;18.90;99.90;;;18.89;88.45;97310.56;4998387;28;20037;-39
2023/10/12 07:17:49;;;;;;;6.45;3.22;;;19.00;99.90;;;19.02;85.59;97313.22;4998009;28;20124;-38
2023/10/12 07:22:57;;;;;;;8.40;3.50;;;19.30;99.90;;;19.33;81.82;97333.22;4999557;28;20041;-39
2023/10/12 07:25:26;;;;;;;6.88;3.47;;;19.40;99.90;;;19.42;78.53;97334.38;5004137;28;20037;-39
2023/10/12 07:28:01;;;;;;;10.93;4.03;;;19.50;99.90;;;19.50;78.22;97326.63;5019356;28;20433;-41
2023/10/12 07:33:07;;;;;;;5.38;3.20;;;19.60;99.90;;;19.55;76.59;97335.16;4999180;28;20127;-39
2023/10/12 07:35:34;;;;;;;7.13;3.33;;;19.60;99.90;;;19.51;76.24;97338.19;5002820;28;20029;-39
2023/10/12 07:38:13;;;;;;;5.85;3.60;;;19.60;99.90;;;19.43;79.78;97331.59;5004794;28;20054;-39
2023/10/12 07:40:49;;;;;;;6.53;3.65;;;19.50;99.90;;;19.32;77.60;97328.00;5003402;28;20248;-38
2023/10/12 07:43:18;;;;;;;7.38;3.65;;;19.50;99.90;;;19.00;79.04;97280.41;5003831;28;20029;-38
2023/10/12 07:45:50;;;;;;;7.38;3.85;;;19.40;99.90;;;19.20;81.65;97314.56;5007891;28;20037;-38
2023/10/12 07:48:30;;;;;;;6.40;3.27;;;19.30;99.90;;;19.13;83.01;97317.78;5004217;28;20041;-40
2023/10/12 07:53:59;;;;;;;10.00;3.75;;;19.20;99.90;;;19.09;81.71;97333.19;4992722;28;20065;-39
2023/10/12 07:56:31;;;;;;;7.65;3.33;;;19.20;99.90;;;19.06;78.68;97323.59;4999674;28;20517;-40
2023/10/12 07:58:59;;;;;;;7.03;3.63;;;19.20;99.90;;;18.99;79.04;97321.47;5004296;28;20058;-40
2023/10/12 08:03:52;;;;;;;5.47;3.42;;;19.10;99.90;;;18.98;80.74;97333.97;5008340;28;20021;-40
2023/10/12 08:06:42;;;;;;;5.70;3.03;;;19.10;99.90;;;18.96;81.01;97332.38;5007139;28;20040;-38
2023/10/12 08:11:49;;;;;;;5.38;3.03;;;19.00;99.90;;;18.88;82.83;97323.09;5007327;28;20033;-38
2023/10/12 08:19:44;;;;;;;7.60;3.33;;;18.90;99.90;;;18.75;86.15;97319.53;5006719;28;20113;-39
2023/10/12 08:22:26;;;;;;;6.72;3.33;;;18.90;99.90;;;18.73;85.96;97326.81;5004639;28;20418;-38
2023/10/12 08:24:56;;;;;;;4.83;3.27;;;18.90;99.90;;;18.69;86.73;97325.34;5006852;28;20473;-39
2023/10/12 08:27:23;;;;;;;7.68;3.53;;;18.80;99.90;;;18.68;87.03;97323.63;5005911;28;20056;-38
2023/10/12 08:32:27;;;;;;;9.77;3.40;;;18.80;99.90;;;18.65;86.84;97319.34;5004359;28;20196;-38
2023/10/12 08:37:35;;;;;;;8.60;4.17;;;18.80;99.90;;;18.64;87.92;97333.66;5006511;28;20037;-38
2023/10/12 08:40:17;;;;;;;10.18;3.90;;;18.70;99.90;;;18.62;91.76;97330.25;5003268;28;20327;-41
2023/10/12 08:42:55;;;;;;;11.02;3.60;;;18.70;99.90;;;18.60;90.66;97329.50;5000599;28;20030;-39
2023/10/12 08:45:24;;;;;;;6.60;3.60;;;18.70;99.90;;;18.58;93.10;97322.59;4996860;28;20201;-39
2023/10/12 08:47:53;;;;;;;11.20;3.97;;;18.70;99.90;;;18.57;93.11;97324.38;5002204;28;20072;-38
2023/10/12 08:52:51;;;;;;;7.57;3.70;;;18.70;99.90;;;18.57;88.74;97321.69;5012389;28;20039;-39
2023/10/12 08:55:24;;;;;;;7.72;3.78;;;18.70;99.90;;;18.64;88.05;97311.44;5003146;28;20371;-40
2023/10/12 08:58:31;;;;;;;10.50;4.40;;;18.70;99.90;;;18.63;91.40;97313.28;4994828;28;20109;-39
2023/10/12 09:03:25;;;;;;;6.53;3.65;;;18.80;99.90;;;18.63;90.08;97317.78;5005818;28;20524;-39
2023/10/12 09:05:51;;;;;;;6.47;3.90;;;18.80;99.90;;;18.62;89.00;97316.91;5002413;28;20041;-39
2023/10/12 09:11:02;;;;;;;7.22;4.03;;;18.80;99.90;;;18.72;87.53;97333.13;5002666;28;20380;-38
2023/10/12 09:13:30;;;;;;;8.77;3.78;;;18.80;99.90;;;18.74;85.32;97320.53;5004708;28;20037;-41
2023/10/12 09:16:05;;;;;;;5.63;3.40;;;18.80;99.90;;;18.77;84.77;97322.97;4998128;28;20783;-39
2023/10/12 09:18:35;;;;;;;6.90;3.45;;;18.90;99.90;;;18.82;84.90;97323.50;5001362;28;20079;-38
2023/10/12 09:29:24;;;;;;;4.97;3.35;;;19.20;99.90;;;19.07;83.90;97322.59;5007112;28;20037;-39
2023/10/12 09:36:26;;;;;;;7.10;4.03;;;19.40;99.90;;;19.35;79.90;97330.44;4999848;28;20053;-38
2023/10/12 09:38:57;;;;;;;9.45;3.80;;;19.50;99.90;;;19.47;79.95;97337.56;5005294;28;20026;-38
2023/10/12 09:41:40;;;;;;;7.57;3.97;;;19.60;99.90;;;19.51;80.03;97332.84;5000780;28;20038;-39
2023/10/12 09:44:07;;;;;;;6.57;4.00;;;19.60;99.90;;;19.43;78.36;97320.88;5019426;28;20036;-39
2023/10/12 09:46:34;;;;;;;7.13;3.70;;;19.70;99.90;;;19.62;77.41;97330.22;5004525;28;20038;-39
2023/10/12 09:49:06;;;;;;;6.90;3.97;;;19.70;99.90;;;19.69;72.53;97325.25;5009371;28;20099;-38
2023/10/12 09:51:36;;;;;;;;;;;19.80;99.90;;;19.73;72.52;97326.72;5001762;28;20414;-39
2023/10/12 09:54:15;;;;;;;6.57;4.00;;;19.80;99.90;;;19.81;73.08;97335.03;5004559;28;20317;-39
2023/10/12 09:56:46;;;;;;;7.05;3.83;;;19.90;99.90;;;19.85;72.71;97320.50;4998936;28;20037;-38
2023/10/12 09:59:20;;;;;;;5.50;3.38;;;19.90;99.90;;;19.89;73.13;97326.47;4998863;28;20519;-38
2023/10/12 10:01:50;;;;;;;11.93;4.60;;;20.00;99.90;;;19.92;71.40;97343.13;4998235;28;20157;-38
2023/10/12 10:09:45;;;;;;;11.98;4.43;;;20.10;99.90;;;20.00;71.07;97324.66;5003142;28;20298;-39
2023/10/12 10:12:16;;;;;;;8.52;3.67;;;20.20;99.90;;;20.18;70.71;97333.09;5001179;28;20029;-38
2023/10/12 10:14:45;;;;;;;8.88;4.30;;;20.30;99.90;;;20.31;68.57;97324.13;5002498;28;20030;-39
2023/10/12 10:17:15;;;;;;;9.15;4.40;;;20.40;99.90;;;20.43;67.93;97336.56;5002683;28;20386;-38
2023/10/12 10:19:43;;;;;;;7.07;3.63;;;20.50;99.90;;;20.50;70.33;97342.28;5004460;28;20525;-38
2023/10/12 10:22:14;;;;;;;9.50;4.65;;;20.60;99.90;;;20.57;66.54;97338.16;5003934;28;20121;-38
2023/10/12 10:24:52;;;;;;;7.60;4.00;;;20.70;99.80;;;20.59;70.06;97345.09;5006408;28;20441;-40
2023/10/12 10:27:18;;;;;;;9.40;3.97;;;20.70;99.80;;;20.49;67.61;97333.38;5007474;28;20505;-39
2023/10/12 10:29:53;;;;;;;8.70;4.28;;;20.70;99.80;;;20.65;64.99;97345.63;5004884;28;20504;-38
2023/10/12 10:32:29;;;;;;;9.75;4.30;;;20.80;99.30;;;20.68;68.75;97342.72;5004841;28;20088;-39
2023/10/12 10:34:59;;;;;;;7.88;4.00;;;20.80;99.60;;;20.75;69.91;97352.81;5008247;28;20490;-39
2023/10/12 10:37:58;;;;;;;8.68;4.35;;;20.90;99.90;;;20.79;71.97;97346.22;5008595;28;20492;-38
2023/10/12 10:40:48;;;;;;;9.57;4.13;;;20.90;99.90;;;20.79;73.55;97343.53;5004738;28;20073;-39
2023/10/12 10:43:15;;;;;;;11.02;4.28;;;20.90;99.90;;;20.78;71.07;97347.22;5007476;28;20080;-38
2023/10/12 10:45:42;;;;;;;6.45;4.22;;;20.90;99.90;;;20.84;69.95;97348.56;5005611;28;20689;-38
2023/10/12 10:48:14;;;;;;;9.18;3.92;;;20.90;99.90;;;20.73;67.29;97336.00;5008713;28;20030;-39
2023/10/12 10:50:49;;;;;;;7.10;4.10;;;20.90;99.90;;;20.81;69.86;97339.91;5006520;28;20033;-40
2023/10/12 10:53:15;;;;;;;7.57;4.20;;;21.00;99.90;;;20.79;72.90;97340.88;5004857;28;20034;-38
2023/10/12 10:55:42;;;;;;;12.20;4.25;;;20.90;99.90;;;20.78;69.30;97349.03;5001264;28;20466;-38
2023/10/12 10:58:09;;;;;;;14.27;4.22;;;20.90;99.90;;;20.72;70.69;97334.28;5002803;28;20044;-40
2023/10/12 11:00:37;;;;;;;16.13;5.75;;;20.90;99.90;;;20.69;68.64;97342.59;4999806;28;20026;-41
2023/10/12 11:03:06;;;;;;;7.68;4.15;;;20.90;99.90;;;20.80;69.13;97341.75;5008505;28;20032;-41
2023/10/12 11:05:37;;;;;;;12.55;4.80;;;20.90;99.90;;;20.81;71.54;97338.06;5007577;28;20950;-39
2023/10/12 11:08:19;;;;;;;9.90;4.70;;;21.00;99.90;;;20.88;73.12;97341.13;5002206;28;20131;-40
2023/10/12 11:13:50;;;;;;;10.70;4.50;;;21.10;99.90;;;21.05;64.48;97334.41;4960594;28;20069;-39
2023/10/12 11:16:32;;;;;;;7.13;4.13;;;21.10;99.00;;;21.09;66.13;97339.41;4998390;28;20195;-39
2023/10/12 11:18:59;;;;;;;9.20;4.45;;;21.20;99.40;;;21.07;65.78;97316.38;5004281;28;20079;-36
2023/10/12 11:21:25;;;;;;;12.07;4.60;;;21.20;99.00;;;21.12;64.77;97319.50;5004054;28;20068;-38
2023/10/12 11:24:01;;;;;;;9.15;4.93;;;21.30;99.10;;;21.23;64.13;97326.69;5005853;28;20595;-38
2023/10/12 11:26:28;;;;;;;10.30;4.32;;;21.30;98.90;;;21.32;63.45;97328.66;5004319;28;20556;-38
2023/10/12 11:29:06;;;;;;;9.43;4.00;;;21.40;98.80;;;21.38;63.24;97329.97;5004126;28;20307;-37
2023/10/12 11:31:33;;;;;;;9.13;4.72;;;21.50;98.70;;;21.47;62.00;97322.03;5003282;28;20045;-38
2023/10/12 11:34:11;;;;;;;9.82;4.22;;;21.50;98.40;;;21.57;64.10;97330.19;5003951;28;20036;-36
2023/10/12 11:36:38;;;;;;;10.52;4.38;;;21.70;98.70;;;21.64;60.83;97325.13;5008872;28;20036;-37
2023/10/12 11:39:16;;;;;;;10.45;4.28;;;21.70;98.10;;;21.67;61.39;97322.22;5024656;28;20044;-37
2023/10/12 11:42:12;;;;;;;9.45;4.47;;;21.80;98.30;;;21.80;59.90;97330.94;5007183;28;20119;-37
2023/10/12 11:44:44;;;;;;;10.02;4.13;;;21.90;97.80;;;21.94;60.96;97324.41;4993262;28;20042;-36
2023/10/12 11:47:38;;;;;;;8.88;4.35;;;22.00;98.00;;;22.00;61.74;97320.34;5005907;28;20030;-37
2023/10/12 11:50:09;;;;;;;6.82;4.00;;;22.10;98.40;;;22.17;61.09;97332.34;4995438;28;20029;-37
2023/10/12 11:52:37;;;;;;;9.35;4.50;;;22.20;98.20;;;22.25;61.13;97327.16;5006029;28;20026;-36
2023/10/12 11:55:19;;;;;;;7.78;4.35;;;22.30;98.00;;;22.35;65.42;97327.28;5005942;28;20037;-39
2023/10/12 11:57:54;;;;;;;10.73;4.50;;;22.50;98.80;;;22.45;66.16;97325.47;5000385;28;20049;-39
2023/10/12 12:02:52;;;;;;;10.27;4.20;;;22.60;99.10;;;22.48;65.85;97326.06;5008577;28;20017;-39
2023/10/12 12:05:22;;;;;;;7.65;4.13;;;22.60;99.10;;;22.63;64.61;97337.34;5003122;28;20552;-41
2023/10/12 12:07:51;;;;;;;7.80;3.92;;;22.60;99.00;;;22.60;66.14;97342.97;5008306;28;20038;-38
2023/10/12 12:10:26;;;;;;;10.30;4.47;;;22.60;98.90;;;22.52;62.12;97340.06;5005978;28;20068;-37
2023/10/12 12:12:52;;;;;;;8.05;4.28;;;22.60;98.50;;;22.40;63.96;97336.63;5006423;28;20141;-40
2023/10/12 12:15:24;;;;;;;11.77;4.55;;;22.50;98.60;;;22.30;65.18;97335.72;4999294;28;20495;-38
2023/10/12 12:17:51;;;;;;;11.00;4.95;;;22.40;98.90;;;22.00;64.26;97307.78;5006485;28;20026;-38
2023/10/12 12:20:21;;;;;;;13.13;5.22;;;22.20;98.60;;;21.96;67.60;97316.22;5005283;28;20030;-37
2023/10/12 12:22:48;;;;;;;14.57;5.35;;;22.10;99.10;;;21.86;66.42;97333.13;5006580;28;20026;-38
2023/10/12 12:25:31;;;;;;;7.70;4.25;;;22.00;99.20;;;21.70;68.40;97316.59;4996678;28;20555;-38
2023/10/12 12:28:04;;;;;;;11.30;4.07;;;21.80;99.40;;;21.65;70.67;97326.84;5004960;28;20034;-39
2023/10/12 12:30:35;;;;;;;10.65;4.70;;;21.80;99.90;;;21.65;73.13;97337.59;5003957;28;20345;-38
2023/10/12 12:33:08;;;;;;;9.65;4.50;;;21.70;99.90;;;21.56;70.89;97339.19;5007740;28;20045;-38
2023/10/12 12:35:39;;;;;;;9.32;4.45;;;21.70;99.90;;;21.47;71.71;97318.50;5005959;28;20490;-40
2023/10/12 12:40:53;;;;;;;8.23;4.50;;;21.60;99.90;;;21.53;76.24;97320.66;5004852;28;20030;-39
2023/10/12 12:43:20;;;;;;;5.57;3.85;;;21.60;99.90;;;21.58;74.92;97320.28;4997513;28;20037;-38
2023/10/12 12:45:46;;;;;;;6.80;3.90;;;21.60;99.90;;;21.56;74.86;97312.38;5002697;28;20022;-39
2023/10/12 12:48:12;;;;;;;8.55;4.65;;;21.60;99.90;;;21.49;77.24;97295.91;4999589;28;20391;-38
2023/10/12 12:50:37;;;;;;;9.70;4.18;;;21.60;99.90;;;21.53;76.51;97313.50;5009357;28;20516;-38